Time;durP1;ratioP1;P1;durP2;ratioP2;P2;SDS_P1;SDS_P2;PMS_P1;PMS_P2;Temp;Humidity;BMP_temperature;BMP_pressure;BME280_temperature;BME280_humidity;BME280_pressure;Samples;Min_cycle;Max_cycle;Signal;HPM_P1;HPM_P2
2023/12/16 00:02:23;;;;;;;56.60;30.60;;;;;;;1.36;86.89;100635.90;226102;1275;22541;-74
2023/12/16 00:07:29;;;;;;;60.40;32.20;;;;;;;1.37;86.89;100630.13;226281;1275;22528;-74
2023/12/16 00:12:31;;;;;;;60.90;31.50;;;;;;;1.39;87.02;100624.77;226348;1273;25291;-75
2023/12/16 00:17:34;;;;;;;56.10;30.10;;;;;;;1.39;86.66;100627.05;226200;1275;22832;-75
2023/12/16 00:22:39;;;;;;;54.70;30.70;;;;;;;1.38;86.66;100624.84;226268;1275;22544;-75
2023/12/16 00:27:42;;;;;;;55.20;29.80;;;;;;;1.36;86.59;100645.11;226289;1275;22544;-73
2023/12/16 00:32:44;;;;;;;52.30;29.20;;;;;;;1.37;86.70;100665.36;226310;1275;22557;-74
2023/12/16 00:37:46;;;;;;;51.70;28.30;;;;;;;1.38;86.75;100668.58;226324;1273;22580;-74
2023/12/16 00:42:54;;;;;;;50.60;28.60;;;;;;;1.41;86.70;100670.70;226248;1275;22547;-74
2023/12/16 00:47:56;;;;;;;54.30;30.00;;;;;;;1.44;86.68;100671.06;226211;1273;22540;-74
2023/12/16 00:52:58;;;;;;;47.30;27.60;;;;;;;1.47;86.65;100666.23;226338;1273;22728;-75
2023/12/16 00:58:00;;;;;;;49.40;27.70;;;;;;;1.48;86.71;100666.66;226366;1275;22531;-75
2023/12/16 01:03:03;;;;;;;53.70;29.80;;;;;;;1.48;86.55;100669.63;226363;1274;22556;-75
2023/12/16 01:08:05;;;;;;;51.00;29.40;;;;;;;1.48;86.70;100665.98;226389;1272;22552;-72
2023/12/16 01:13:07;;;;;;;42.60;24.40;;;;;;;1.50;86.75;100658.05;226246;1275;22895;-75
2023/12/16 01:18:09;;;;;;;47.90;26.50;;;;;;;1.52;86.79;100644.73;226259;1273;22510;-73
2023/12/16 01:23:11;;;;;;;42.20;25.10;;;;;;;1.56;86.76;100649.21;226352;1275;22550;-77
2023/12/16 01:28:13;;;;;;;44.10;24.70;;;;;;;1.60;86.91;100649.02;226176;1273;22548;-75
2023/12/16 01:33:15;;;;;;;38.60;23.10;;;;;;;1.63;86.80;100646.21;226362;1272;22528;-75
2023/12/16 01:38:18;;;;;;;39.80;22.70;;;;;;;1.68;86.87;100641.95;226293;1273;22579;-74
2023/12/16 01:43:19;;;;;;;39.80;22.90;;;;;;;1.72;86.92;100644.67;226334;1273;23047;-75
2023/12/16 01:48:22;;;;;;;35.70;21.80;;;;;;;1.77;86.93;100642.49;226260;1275;22567;-73
2023/12/16 01:53:26;;;;;;;35.60;21.90;;;;;;;1.81;86.95;100651.46;226326;1266;22550;-73
2023/12/16 01:58:29;;;;;;;33.60;20.60;;;;;;;1.84;86.87;100660.88;226542;1270;22559;-74
2023/12/16 02:03:31;;;;;;;37.80;20.90;;;;;;;1.86;86.77;100667.70;226707;1275;22557;-74
2023/12/16 02:08:33;;;;;;;33.60;20.60;;;;;;;1.88;86.84;100660.11;226395;1270;25259;-74
2023/12/16 02:13:42;;;;;;;38.00;21.70;;;;;;;1.88;86.88;100649.50;226174;1275;22550;-73
2023/12/16 02:18:45;;;;;;;32.50;20.10;;;;;;;1.90;87.03;100652.02;226401;1275;22580;-73
2023/12/16 02:23:47;;;;;;;32.30;20.20;;;;;;;1.91;87.01;100659.05;226242;1274;22538;-73
2023/12/16 02:28:49;;;;;;;30.20;18.50;;;;;;;1.93;87.07;100666.08;226223;1273;22533;-74
2023/12/16 02:33:51;;;;;;;32.20;20.60;;;;;;;1.94;87.06;100678.86;226404;1272;22548;-74
2023/12/16 02:38:53;;;;;;;31.80;18.70;;;;;;;1.96;87.20;100686.40;226187;1265;22540;-74
2023/12/16 02:43:55;;;;;;;30.20;19.00;;;;;;;2.01;87.32;100689.63;226354;1273;22540;-75
2023/12/16 02:48:57;;;;;;;30.50;19.00;;;;;;;2.06;87.24;100688.94;226431;1264;22561;-75
2023/12/16 02:53:59;;;;;;;27.80;18.20;;;;;;;2.12;87.47;100691.01;226430;1273;22556;-74
2023/12/16 02:59:01;;;;;;;25.00;16.50;;;;;;;2.16;87.28;100692.92;226408;1273;22548;-74
2023/12/16 03:04:03;;;;;;;26.00;17.00;;;;;;;2.14;87.15;100700.65;226398;1269;22568;-75
2023/12/16 03:09:05;;;;;;;26.10;17.00;;;;;;;2.16;87.24;100692.92;226294;1275;22920;-74
2023/12/16 03:14:07;;;;;;;28.20;17.50;;;;;;;2.19;87.20;100691.02;226403;1272;22530;-74
2023/12/16 03:19:09;;;;;;;26.60;15.80;;;;;;;2.25;87.30;100693.59;226432;1272;25345;-73
2023/12/16 03:24:12;;;;;;;23.30;15.80;;;;;;;2.31;87.45;100711.33;226421;1270;22546;-74
2023/12/16 03:29:17;;;;;;;25.20;16.00;;;;;;;2.30;87.07;100725.31;226398;1275;22566;-74
2023/12/16 03:34:19;;;;;;;21.60;13.80;;;;;;;2.31;87.12;100725.06;226323;1275;22694;-74
2023/12/16 03:39:21;;;;;;;24.80;14.80;;;;;;;2.28;86.88;100719.15;226293;1275;22552;-74
2023/12/16 03:44:23;;;;;;;22.90;14.00;;;;;;;2.27;87.12;100718.17;226264;1273;22558;-73
2023/12/16 03:49:25;;;;;;;22.10;14.20;;;;;;;2.25;87.03;100715.85;226370;1273;22547;-74
2023/12/16 03:54:27;;;;;;;25.10;14.60;;;;;;;2.24;87.06;100715.90;226389;1273;22554;-74
2023/12/16 03:59:29;;;;;;;22.90;14.80;;;;;;;2.25;87.10;100716.04;226278;1275;22537;-73
2023/12/16 04:04:32;;;;;;;24.80;16.00;;;;;;;2.27;87.15;100716.24;226409;1272;22576;-73
2023/12/16 04:09:35;;;;;;;24.70;15.90;;;;;;;2.29;87.08;100707.81;226269;1275;22575;-73
2023/12/16 04:14:38;;;;;;;23.90;15.40;;;;;;;2.29;87.31;100710.55;226469;1265;22561;-74
2023/12/16 04:19:50;;;;;;;29.60;19.50;;;;;;;2.32;87.09;100717.20;226408;1273;22547;-75
2023/12/16 04:24:57;;;;;;;35.60;22.20;;;;;;;2.31;87.09;100716.75;226341;1273;24257;-73
2023/12/16 04:30:00;;;;;;;37.10;24.20;;;;;;;2.29;87.10;100713.52;226342;1275;22673;-74
2023/12/16 04:35:02;;;;;;;35.30;22.50;;;;;;;2.29;87.14;100704.13;226334;1275;22551;-74
2023/12/16 04:40:06;;;;;;;41.60;25.50;;;;;;;2.28;87.24;100701.60;226320;1275;22554;-74
2023/12/16 04:45:08;;;;;;;43.00;26.30;;;;;;;2.28;87.35;100708.21;226621;1272;22559;-75
2023/12/16 04:50:11;;;;;;;36.90;25.00;;;;;;;2.26;87.19;100717.38;226429;1273;22551;-73
2023/12/16 04:55:13;;;;;;;39.20;26.40;;;;;;;2.22;87.27;100729.95;226340;1271;22606;-73
2023/12/16 05:00:15;;;;;;;34.80;24.30;;;;;;;2.21;87.28;100735.75;226147;1275;22892;-75
2023/12/16 05:05:17;;;;;;;36.20;24.30;;;;;;;2.17;87.28;100734.93;226494;1270;22577;-75
2023/12/16 05:10:19;;;;;;;37.10;24.10;;;;;;;2.15;87.36;100738.34;226437;1273;23299;-76
2023/12/16 05:15:22;;;;;;;35.10;23.90;;;;;;;2.14;87.37;100741.70;226319;1275;22632;-75
2023/12/16 05:20:24;;;;;;;36.50;24.80;;;;;;;2.14;87.56;100748.48;226107;1275;22604;-75
2023/12/16 05:25:28;;;;;;;36.80;24.50;;;;;;;2.15;87.57;100753.95;226467;1270;24231;-73
2023/12/16 05:30:30;;;;;;;33.90;23.70;;;;;;;2.19;87.63;100747.84;226374;1273;24276;-73
2023/12/16 05:35:32;;;;;;;32.80;22.30;;;;;;;2.21;87.54;100751.56;226277;1275;22921;-73
2023/12/16 05:40:35;;;;;;;33.80;22.50;;;;;;;2.22;87.58;100755.51;226273;1274;22550;-75
2023/12/16 05:45:37;;;;;;;29.50;19.90;;;;;;;2.25;87.68;100765.25;226330;1275;22571;-73
2023/12/16 05:50:39;;;;;;;29.40;20.10;;;;;;;2.28;87.54;100765.39;226314;1273;22548;-72
2023/12/16 05:55:45;;;;;;;28.60;18.90;;;;;;;2.31;87.71;100773.21;226265;1273;22557;-74
2023/12/16 06:00:47;;;;;;;27.90;18.00;;;;;;;2.36;87.57;100784.45;226468;1272;24611;-76
2023/12/16 06:05:49;;;;;;;31.60;18.90;;;;;;;2.39;87.49;100785.11;226299;1273;22539;-73
2023/12/16 06:10:52;;;;;;;24.50;17.90;;;;;;;2.41;87.50;100782.73;226359;1273;22552;-75
2023/12/16 06:15:54;;;;;;;29.10;18.00;;;;;;;2.43;87.64;100784.19;226324;1275;22570;-73
2023/12/16 06:21:16;;;;;;;29.40;18.70;;;;;;;2.45;87.48;100786.31;226532;1273;22560;-73
2023/12/16 06:26:18;;;;;;;26.20;17.30;;;;;;;2.48;87.51;100791.20;226474;1273;22566;-72
2023/12/16 06:31:21;;;;;;;25.80;17.10;;;;;;;2.50;87.39;100794.23;226304;1273;22560;-73
2023/12/16 06:36:23;;;;;;;25.40;17.10;;;;;;;2.53;87.45;100790.75;226346;1275;22541;-73
2023/12/16 06:41:29;;;;;;;25.10;17.50;;;;;;;2.55;87.37;100791.49;226498;1269;22556;-73
2023/12/16 06:46:31;;;;;;;25.40;16.70;;;;;;;2.57;87.27;100791.41;226352;1275;22569;-75
2023/12/16 06:51:34;;;;;;;26.10;16.90;;;;;;;2.57;87.44;100792.27;226547;1273;22539;-75
2023/12/16 06:56:36;;;;;;;27.90;18.10;;;;;;;2.59;87.27;100797.20;226323;1272;22542;-74
2023/12/16 07:01:38;;;;;;;27.90;17.70;;;;;;;2.62;87.34;100802.07;226311;1273;22579;-75
2023/12/16 07:06:40;;;;;;;27.00;17.30;;;;;;;2.64;87.19;100811.38;226289;1275;24797;-74
2023/12/16 07:11:42;;;;;;;29.20;18.10;;;;;;;2.66;87.21;100814.89;226502;1273;24271;-74
2023/12/16 07:16:44;;;;;;;29.00;18.00;;;;;;;2.68;87.15;100817.19;226497;1272;22566;-75
2023/12/16 07:21:46;;;;;;;28.50;18.90;;;;;;;2.72;87.37;100816.27;226298;1272;22573;-75
2023/12/16 07:26:49;;;;;;;28.20;18.40;;;;;;;2.77;87.43;100822.61;226520;1272;22540;-74
2023/12/16 07:31:51;;;;;;;27.70;18.80;;;;;;;2.80;87.23;100829.89;226553;1269;24317;-74
2023/12/16 07:36:53;;;;;;;27.60;18.70;;;;;;;2.82;87.10;100829.75;226485;1275;22554;-73
2023/12/16 07:41:55;;;;;;;27.20;17.80;;;;;;;2.84;86.89;100834.70;226284;1274;23080;-74
2023/12/16 07:46:57;;;;;;;29.60;19.40;;;;;;;2.86;86.89;100830.63;226375;1251;23641;-75
2023/12/16 07:52:00;;;;;;;30.40;18.70;;;;;;;2.87;86.90;100833.86;226358;1266;22600;-75
2023/12/16 07:57:03;;;;;;;28.10;18.80;;;;;;;2.90;86.93;100836.80;226417;1271;22672;-75
2023/12/16 08:02:08;;;;;;;33.30;20.60;;;;;;;2.94;86.83;100838.17;226141;1255;24303;-74
2023/12/16 08:07:10;;;;;;;38.80;22.30;;;;;;;2.98;87.06;100844.70;226277;1253;22616;-75
2023/12/16 08:12:12;;;;;;;37.50;21.20;;;;;;;3.05;86.93;100853.19;226150;1275;25242;-75
2023/12/16 08:17:14;;;;;;;31.60;19.40;;;;;;;3.06;86.66;100849.64;226215;1269;22553;-76
2023/12/16 08:22:16;;;;;;;32.60;20.70;;;;;;;3.06;86.60;100848.25;226073;1266;22547;-75
2023/12/16 08:27:18;;;;;;;31.00;20.80;;;;;;;3.09;86.58;100854.14;225964;1266;22536;-74
2023/12/16 08:32:21;;;;;;;32.90;20.90;;;;;;;3.17;86.88;100863.26;226087;1269;22541;-76
2023/12/16 08:37:23;;;;;;;32.40;20.40;;;;;;;3.25;86.91;100869.59;225971;1272;22561;-76
2023/12/16 08:42:25;;;;;;;35.30;21.60;;;;;;;3.34;86.70;100871.16;226049;1252;22563;-75
2023/12/16 08:47:27;;;;;;;37.30;22.20;;;;;;;3.39;86.75;100868.73;225715;1262;22579;-76
2023/12/16 08:52:33;;;;;;;36.90;23.00;;;;;;;3.48;86.58;100863.88;225658;1274;22544;-74
2023/12/16 08:57:35;;;;;;;34.80;20.20;;;;;;;3.57;86.44;100870.61;225666;1274;23010;-76
2023/12/16 09:02:39;;;;;;;32.50;20.90;;;;;;;3.64;86.42;100869.48;226040;1269;22647;-76
2023/12/16 09:07:42;;;;;;;29.70;20.20;;;;;;;3.69;86.22;100860.84;226021;1259;22482;-76
2023/12/16 09:12:44;;;;;;;30.10;19.00;;;;;;;3.77;86.19;100857.00;226135;1251;22555;-76
2023/12/16 09:17:49;;;;;;;35.00;23.60;;;;;;;3.86;86.03;100855.97;226231;1260;22613;-77
2023/12/16 09:22:52;;;;;;;29.60;19.20;;;;;;;3.93;85.92;100856.23;226156;1263;22581;-77
2023/12/16 09:27:54;;;;;;;30.20;19.50;;;;;;;4.03;86.13;100863.80;226156;1272;25254;-78
2023/12/16 09:32:57;;;;;;;28.20;18.30;;;;;;;4.15;86.16;100869.68;225911;1250;22543;-78
2023/12/16 09:37:59;;;;;;;28.70;18.10;;;;;;;4.26;86.21;100878.75;225895;1273;22529;-73
2023/12/16 09:43:13;;;;;;;25.80;16.10;;;;;;;4.34;86.18;100874.94;225940;1273;22815;-76
2023/12/16 09:48:16;;;;;;;27.80;18.00;;;;;;;4.39;85.62;100880.54;226424;1260;22555;-75
2023/12/16 09:53:19;;;;;;;24.60;15.60;;;;;;;4.39;85.34;100877.08;225878;1272;22567;-74
2023/12/16 09:58:21;;;;;;;25.10;15.20;;;;;;;4.41;85.00;100876.25;225999;1269;22543;-74
2023/12/16 10:03:24;;;;;;;24.70;16.30;;;;;;;4.46;85.27;100875.90;225713;1250;22718;-73
2023/12/16 10:08:26;;;;;;;29.80;19.20;;;;;;;4.55;85.14;100869.38;225832;1269;22841;-72
2023/12/16 10:13:30;;;;;;;27.80;17.40;;;;;;;4.67;85.28;100863.23;226048;1269;22591;-75
2023/12/16 10:18:32;;;;;;;25.00;16.40;;;;;;;4.75;85.11;100866.90;226039;1266;22549;-75
2023/12/16 10:23:37;;;;;;;24.50;15.70;;;;;;;4.87;85.18;100869.21;226118;1256;25390;-75
2023/12/16 10:28:39;;;;;;;23.30;14.80;;;;;;;5.00;84.76;100866.67;226006;1262;26303;-75
2023/12/16 10:33:42;;;;;;;21.10;13.90;;;;;;;5.06;84.93;100874.06;226077;1256;26165;-74
2023/12/16 10:38:44;;;;;;;19.00;12.00;;;;;;;5.07;84.76;100874.52;226222;1269;25486;-74
2023/12/16 10:43:46;;;;;;;19.40;13.30;;;;;;;5.01;84.39;100861.14;226206;1266;22544;-76
2023/12/16 10:48:53;;;;;;;25.90;13.60;;;;;;;4.97;84.74;100864.55;226244;1253;22647;-77
2023/12/16 10:54:00;;;;;;;20.40;12.10;;;;;;;5.00;84.57;100860.73;226233;1267;23049;-74
2023/12/16 10:59:12;;;;;;;21.20;14.50;;;;;;;5.02;84.77;100843.64;226280;1256;24425;-76
2023/12/16 11:04:23;;;;;;;18.90;12.20;;;;;;;5.04;85.01;100842.06;226066;1274;22548;-74
2023/12/16 11:09:26;;;;;;;16.60;11.60;;;;;;;5.08;84.68;100838.67;225978;1272;23123;-75
2023/12/16 11:14:31;;;;;;;19.10;12.90;;;;;;;5.13;85.30;100830.46;226036;1251;24606;-76
2023/12/16 11:19:38;;;;;;;21.20;14.10;;;;;;;5.27;85.20;100827.09;226033;1256;24256;-77
2023/12/16 11:24:41;;;;;;;16.10;10.40;;;;;;;5.42;85.24;100821.38;226053;1256;135214;-76
2023/12/16 11:29:43;;;;;;;18.20;12.50;;;;;;;5.57;85.20;100809.66;226304;1262;22540;-72
2023/12/16 11:34:49;;;;;;;18.60;12.70;;;;;;;5.77;85.10;100804.91;226121;1250;22896;-76
2023/12/16 11:39:52;;;;;;;17.70;11.10;;;;;;;5.90;85.10;100804.33;226375;1255;22543;-77
2023/12/16 11:44:55;;;;;;;17.80;11.50;;;;;;;5.87;84.71;100803.67;226164;1274;22539;-76
2023/12/16 11:49:57;;;;;;;19.90;13.10;;;;;;;5.80;84.89;100801.35;226152;1256;25520;-78
2023/12/16 11:54:59;;;;;;;18.90;12.80;;;;;;;5.76;84.59;100801.32;226022;1260;24325;-74
2023/12/16 12:00:02;;;;;;;18.50;12.90;;;;;;;5.72;85.04;100792.35;225994;1256;22553;-73
2023/12/16 12:05:11;;;;;;;20.50;13.00;;;;;;;5.67;84.76;100788.30;225758;1272;24238;-73
2023/12/16 12:10:13;;;;;;;21.90;14.50;;;;;;;5.61;85.08;100786.98;225755;1272;22566;-76
2023/12/16 12:15:15;;;;;;;22.00;15.20;;;;;;;5.61;84.77;100793.45;225843;1263;22545;-73
2023/12/16 12:20:21;;;;;;;27.30;18.50;;;;;;;5.55;85.06;100792.62;226041;1275;24627;-74
2023/12/16 12:25:23;;;;;;;27.70;17.70;;;;;;;5.48;85.12;100786.15;226153;1275;22543;-72
2023/12/16 12:30:26;;;;;;;28.40;18.30;;;;;;;5.35;85.25;100780.41;226257;1275;22599;-73
2023/12/16 12:35:28;;;;;;;27.40;17.60;;;;;;;5.27;85.09;100781.98;226455;1275;22559;-74
2023/12/16 12:40:31;;;;;;;28.00;18.90;;;;;;;5.17;85.14;100772.56;226364;1275;22550;-73
2023/12/16 12:45:35;;;;;;;35.70;21.90;;;;;;;5.08;85.49;100755.52;226362;1275;25410;-72
2023/12/16 12:50:39;;;;;;;35.00;23.30;;;;;;;5.05;85.64;100749.24;226373;1272;22530;-72
2023/12/16 12:55:43;;;;;;;38.60;22.30;;;;;;;5.07;86.01;100759.44;226418;1275;23027;-73
2023/12/16 13:00:45;;;;;;;43.10;24.80;;;;;;;5.07;86.13;100758.89;226300;1275;22551;-73
2023/12/16 13:05:50;;;;;;;43.20;25.70;;;;;;;5.08;86.57;100752.39;226261;1275;22540;-72
2023/12/16 13:10:52;;;;;;;43.60;25.40;;;;;;;5.11;86.44;100742.79;226428;1275;22566;-73
2023/12/16 13:15:54;;;;;;;39.30;25.80;;;;;;;5.12;86.11;100743.02;226394;1275;22568;-74
2023/12/16 13:21:00;;;;;;;41.10;26.60;;;;;;;5.11;86.17;100739.61;226137;1271;22543;-72
2023/12/16 13:26:10;;;;;;;40.10;24.80;;;;;;;5.13;86.39;100731.11;226165;1268;22552;-73
2023/12/16 13:31:12;;;;;;;42.00;25.50;;;;;;;5.11;86.32;100736.33;226439;1274;23761;-74
2023/12/16 13:36:14;;;;;;;38.50;24.80;;;;;;;5.06;86.38;100733.64;226276;1275;22710;-74
2023/12/16 13:41:36;;;;;;;40.20;26.30;;;;;;;5.06;86.63;100730.67;226375;1274;24238;-74
2023/12/16 13:46:39;;;;;;;38.00;25.10;;;;;;;5.05;86.66;100730.23;226127;1275;25417;-75
2023/12/16 13:51:41;;;;;;;36.10;22.70;;;;;;;4.98;86.71;100737.00;226390;1272;22543;-74
2023/12/16 13:56:43;;;;;;;35.80;22.30;;;;;;;4.85;86.80;100739.98;226408;1269;22543;-73
2023/12/16 14:01:45;;;;;;;35.80;24.50;;;;;;;4.74;86.71;100746.17;226321;1275;22910;-73
2023/12/16 14:06:47;;;;;;;41.50;25.90;;;;;;;4.69;87.12;100742.16;226199;1275;22532;-74
2023/12/16 14:11:49;;;;;;;38.70;23.10;;;;;;;4.63;87.34;100737.99;226376;1274;22550;-73
2023/12/16 14:16:52;;;;;;;39.80;23.90;;;;;;;4.53;87.32;100737.07;226383;1275;23313;-74
2023/12/16 14:21:54;;;;;;;38.80;23.70;;;;;;;4.46;87.66;100731.79;226333;1274;22558;-73
2023/12/16 14:26:56;;;;;;;36.10;22.50;;;;;;;4.42;87.86;100731.89;226350;1272;22616;-73
2023/12/16 14:31:58;;;;;;;36.70;24.60;;;;;;;4.36;87.83;100733.85;226402;1275;22605;-72
2023/12/16 14:37:00;;;;;;;37.50;24.10;;;;;;;4.31;87.78;100733.17;226348;1272;25279;-73
2023/12/16 14:42:03;;;;;;;32.10;21.40;;;;;;;4.25;87.76;100733.18;226228;1275;22555;-73
2023/12/16 14:47:05;;;;;;;30.90;20.70;;;;;;;4.20;88.40;100732.63;226181;1275;22539;-73
2023/12/16 14:52:07;;;;;;;33.70;21.50;;;;;;;4.17;88.10;100734.70;226343;1275;22567;-73
2023/12/16 14:57:09;;;;;;;30.50;19.90;;;;;;;4.18;88.59;100734.11;226163;1275;22561;-73
2023/12/16 15:02:11;;;;;;;34.20;22.90;;;;;;;4.20;88.65;100734.36;226282;1269;22545;-74
2023/12/16 15:07:13;;;;;;;42.00;26.60;;;;;;;4.17;88.51;100725.12;226351;1274;22609;-73
2023/12/16 15:12:17;;;;;;;46.30;27.70;;;;;;;4.16;88.71;100729.73;226419;1273;22673;-73
2023/12/16 15:17:19;;;;;;;43.00;26.60;;;;;;;4.15;88.45;100732.10;226328;1275;22555;-74
2023/12/16 15:22:21;;;;;;;45.30;27.50;;;;;;;4.15;88.73;100724.61;226335;1265;22981;-74
2023/12/16 15:27:23;;;;;;;46.10;26.60;;;;;;;4.14;88.85;100718.71;226172;1275;24231;-73
2023/12/16 15:32:25;;;;;;;51.70;31.50;;;;;;;4.14;88.84;100719.45;226368;1275;22582;-73
2023/12/16 15:37:27;;;;;;;53.80;31.60;;;;;;;4.13;88.66;100726.46;226385;1275;22578;-74
2023/12/16 15:42:30;;;;;;;54.40;32.70;;;;;;;4.10;88.83;100726.12;226384;1265;22544;-72
2023/12/16 15:47:32;;;;;;;53.30;33.50;;;;;;;4.09;88.65;100726.17;226375;1273;22544;-72
2023/12/16 15:52:36;;;;;;;54.00;32.40;;;;;;;4.09;88.90;100730.90;226339;1275;22561;-73
2023/12/16 15:57:40;;;;;;;54.10;32.40;;;;;;;4.09;88.91;100731.42;226483;1273;22567;-75
2023/12/16 16:02:44;;;;;;;52.90;32.40;;;;;;;4.10;88.73;100729.65;226471;1271;22559;-74
2023/12/16 16:07:47;;;;;;;52.30;32.10;;;;;;;4.11;89.12;100717.87;226482;1272;22566;-73
2023/12/16 16:12:49;;;;;;;51.50;30.10;;;;;;;4.10;89.16;100718.48;226462;1273;24839;-73
2023/12/16 16:17:52;;;;;;;49.50;30.80;;;;;;;4.07;89.07;100727.54;226435;1272;23813;-74
2023/12/16 16:22:54;;;;;;;55.80;33.70;;;;;;;4.05;89.09;100732.04;226405;1251;25161;-73
2023/12/16 16:27:56;;;;;;;51.50;32.60;;;;;;;4.03;89.19;100725.36;226422;1272;22551;-72
2023/12/16 16:32:58;;;;;;;50.30;32.90;;;;;;;4.02;89.32;100723.16;226410;1272;25341;-74
2023/12/16 16:38:01;;;;;;;50.40;32.00;;;;;;;4.00;89.14;100716.30;226417;1272;22568;-74
2023/12/16 16:43:03;;;;;;;51.10;32.80;;;;;;;4.01;89.24;100725.00;226441;1273;22549;-73
2023/12/16 16:48:05;;;;;;;48.80;29.90;;;;;;;4.03;89.11;100722.92;226471;1273;22579;-74
2023/12/16 16:53:07;;;;;;;46.40;29.80;;;;;;;4.04;89.31;100729.77;226491;1272;22567;-74
2023/12/16 16:58:13;;;;;;;49.10;30.90;;;;;;;4.06;89.07;100731.42;226349;1272;22589;-73
2023/12/16 17:03:17;;;;;;;47.70;28.80;;;;;;;4.07;89.04;100730.86;226427;1274;22545;-73
2023/12/16 17:08:19;;;;;;;52.40;31.10;;;;;;;4.08;89.26;100717.21;226397;1273;22537;-73
2023/12/16 17:13:21;;;;;;;53.30;31.10;;;;;;;4.08;89.06;100709.88;226486;1274;22530;-73
2023/12/16 17:18:24;;;;;;;49.70;29.40;;;;;;;4.10;88.99;100713.93;226378;1273;22554;-74
2023/12/16 17:23:26;;;;;;;54.50;30.90;;;;;;;4.11;89.20;100709.13;226438;1273;22677;-74
2023/12/16 17:28:30;;;;;;;46.10;27.00;;;;;;;4.12;89.08;100705.74;226368;1274;22548;-74
2023/12/16 17:33:32;;;;;;;45.80;28.60;;;;;;;4.14;89.21;100712.77;226355;1259;22539;-74
2023/12/16 17:38:35;;;;;;;44.20;27.10;;;;;;;4.16;89.15;100723.29;226558;1274;22658;-74
2023/12/16 17:43:37;;;;;;;43.50;25.20;;;;;;;4.19;88.72;100715.27;226420;1272;22552;-74
2023/12/16 17:48:39;;;;;;;41.20;23.20;;;;;;;4.22;88.67;100724.81;226404;1274;22536;-73
2023/12/16 17:53:43;;;;;;;35.80;20.30;;;;;;;4.25;88.60;100722.51;226416;1273;24520;-74
2023/12/16 17:58:46;;;;;;;32.40;20.00;;;;;;;4.27;88.53;100730.23;226420;1273;22547;-74
2023/12/16 18:03:51;;;;;;;33.50;19.20;;;;;;;4.30;88.76;100738.48;226357;1273;22566;-74
2023/12/16 18:08:53;;;;;;;28.50;17.40;;;;;;;4.33;88.35;100749.89;226373;1274;22674;-75
2023/12/16 18:13:55;;;;;;;26.30;16.20;;;;;;;4.38;88.35;100742.80;226440;1274;24241;-75
2023/12/16 18:19:00;;;;;;;30.50;18.00;;;;;;;4.39;87.97;100733.64;226522;1272;22599;-74
2023/12/16 18:24:04;;;;;;;32.10;17.90;;;;;;;4.38;87.94;100737.06;226856;1273;23123;-74
2023/12/16 18:29:06;;;;;;;27.60;16.90;;;;;;;4.40;87.91;100739.69;226532;1274;24254;-74
2023/12/16 18:34:11;;;;;;;24.40;15.80;;;;;;;4.42;88.14;100745.34;226414;1273;22547;-73
2023/12/16 18:39:14;;;;;;;24.70;15.50;;;;;;;4.41;87.71;100744.14;226422;1251;22609;-73
2023/12/16 18:44:18;;;;;;;29.30;18.20;;;;;;;4.36;87.23;100739.96;226456;1274;22588;-75
2023/12/16 18:49:20;;;;;;;35.00;20.50;;;;;;;4.26;87.52;100736.40;226397;1273;22527;-75
2023/12/16 18:54:22;;;;;;;38.10;22.30;;;;;;;4.15;87.33;100740.98;226453;1273;22554;-74
2023/12/16 18:59:25;;;;;;;40.90;22.30;;;;;;;4.03;87.31;100741.23;226524;1273;22564;-73
2023/12/16 19:04:27;;;;;;;31.70;19.20;;;;;;;3.91;87.29;100738.34;226442;1273;23237;-73
2023/12/16 19:09:31;;;;;;;34.80;19.20;;;;;;;3.81;87.41;100730.27;226589;1273;22528;-73
2023/12/16 19:14:34;;;;;;;37.00;21.40;;;;;;;3.73;87.41;100732.31;226628;1274;22643;-73
2023/12/16 19:19:42;;;;;;;38.50;22.90;;;;;;;3.65;87.42;100735.99;226551;1274;22559;-74
2023/12/16 19:24:45;;;;;;;32.00;20.20;;;;;;;3.56;87.42;100732.68;226568;1272;22560;-73
2023/12/16 19:29:47;;;;;;;38.70;23.40;;;;;;;3.49;87.29;100737.64;226543;1274;25369;-73
2023/12/16 19:34:50;;;;;;;35.30;23.20;;;;;;;3.44;87.54;100738.70;226493;1270;22574;-75
2023/12/16 19:39:52;;;;;;;33.20;20.00;;;;;;;3.38;87.49;100737.85;226530;1273;22558;-72
2023/12/16 19:44:54;;;;;;;41.40;21.00;;;;;;;3.32;87.36;100735.96;226279;1274;22680;-73
2023/12/16 19:49:56;;;;;;;36.80;22.00;;;;;;;3.21;87.41;100724.06;226298;1273;22597;-73
2023/12/16 19:54:58;;;;;;;37.50;23.10;;;;;;;3.14;87.38;100716.30;226347;1273;22546;-72
2023/12/16 20:00:01;;;;;;;48.70;27.40;;;;;;;3.09;87.54;100716.80;226502;1273;22611;-72
2023/12/16 20:05:13;;;;;;;57.30;34.20;;;;;;;3.05;87.80;100714.77;226431;1273;22533;-74
2023/12/16 20:10:17;;;;;;;50.70;29.20;;;;;;;3.05;87.72;100709.04;226434;1273;22536;-74
2023/12/16 20:15:19;;;;;;;52.50;30.40;;;;;;;3.03;87.66;100697.70;227034;1272;22537;-74
2023/12/16 20:20:22;;;;;;;47.90;29.60;;;;;;;2.99;87.82;100697.41;226466;1273;22638;-74
2023/12/16 20:25:24;;;;;;;46.50;28.00;;;;;;;2.98;87.92;100698.30;226503;1274;22544;-74
2023/12/16 20:30:31;;;;;;;47.50;28.30;;;;;;;3.00;87.98;100699.05;226527;1273;22555;-74
2023/12/16 20:35:34;;;;;;;48.40;27.40;;;;;;;3.05;88.06;100697.39;226511;1273;22548;-73
2023/12/16 20:40:36;;;;;;;45.60;27.70;;;;;;;3.07;88.06;100706.48;226290;1273;22576;-74
2023/12/16 20:45:41;;;;;;;47.60;29.20;;;;;;;3.07;88.09;100702.30;226501;1272;22561;-74
2023/12/16 20:50:48;;;;;;;43.50;26.00;;;;;;;3.04;88.11;100700.91;226543;1273;22545;-72
2023/12/16 20:55:53;;;;;;;40.10;25.60;;;;;;;3.01;87.73;100702.65;226415;1273;22587;-72
2023/12/16 21:00:58;;;;;;;42.70;24.70;;;;;;;2.99;88.03;100694.09;226387;1273;22662;-73
2023/12/16 21:06:01;;;;;;;43.10;24.90;;;;;;;2.96;87.89;100688.73;226535;1251;22545;-73
2023/12/16 21:11:03;;;;;;;40.60;24.80;;;;;;;2.91;87.93;100671.63;226366;1273;22580;-74
2023/12/16 21:16:07;;;;;;;38.60;23.70;;;;;;;2.86;87.68;100661.83;226522;1271;24951;-73
2023/12/16 21:21:12;;;;;;;40.60;24.00;;;;;;;2.80;87.89;100656.75;226594;1272;25325;-73
2023/12/16 21:26:14;;;;;;;38.30;24.80;;;;;;;2.79;87.98;100641.89;226587;1271;22558;-74
2023/12/16 21:31:17;;;;;;;39.10;23.90;;;;;;;2.78;88.02;100634.30;226493;1270;22559;-74
2023/12/16 21:36:20;;;;;;;37.20;21.70;;;;;;;2.73;88.41;100636.15;226541;1273;22547;-72
2023/12/16 21:41:22;;;;;;;38.70;22.30;;;;;;;2.66;88.09;100630.83;226973;1273;22560;-73
2023/12/16 21:46:26;;;;;;;38.80;22.80;;;;;;;2.60;88.19;100624.41;226474;1274;23167;-73
2023/12/16 21:51:28;;;;;;;37.40;21.40;;;;;;;2.53;88.35;100633.89;226286;1273;22540;-72
2023/12/16 21:56:30;;;;;;;41.10;22.50;;;;;;;2.45;88.63;100640.40;226464;1274;22548;-73
2023/12/16 22:01:32;;;;;;;40.30;22.40;;;;;;;2.42;88.43;100643.04;226470;1273;22545;-74
2023/12/16 22:06:34;;;;;;;38.20;21.90;;;;;;;2.42;88.56;100644.96;226297;1274;22567;-73
2023/12/16 22:11:36;;;;;;;34.60;21.90;;;;;;;2.47;88.68;100641.04;226472;1270;22543;-74
2023/12/16 22:16:39;;;;;;;38.70;21.20;;;;;;;2.52;88.62;100635.16;226467;1274;22639;-74
2023/12/16 22:21:41;;;;;;;36.20;20.90;;;;;;;2.58;88.55;100634.60;226594;1270;22548;-73
2023/12/16 22:26:49;;;;;;;34.10;19.50;;;;;;;2.66;88.63;100633.98;226524;1274;22560;-74
2023/12/16 22:32:06;;;;;;;31.40;19.30;;;;;;;2.74;88.59;100627.75;226655;1265;22566;-74
2023/12/16 22:37:10;;;;;;;32.00;18.20;;;;;;;2.80;88.76;100645.98;226494;1269;22585;-73
2023/12/16 22:42:15;;;;;;;34.00;18.80;;;;;;;2.87;88.62;100662.63;226402;1273;22538;-74
2023/12/16 22:47:18;;;;;;;31.40;18.50;;;;;;;2.96;88.59;100673.02;226512;1273;22549;-73
2023/12/16 22:52:20;;;;;;;30.60;17.80;;;;;;;3.03;88.44;100676.92;226502;1270;22540;-73
2023/12/16 22:57:22;;;;;;;31.40;18.00;;;;;;;3.10;88.28;100670.60;226615;1273;25481;-74